sensor_id;sensor_type;location;lat;lon;timestamp;pressure;altitude;pressure_sealevel;temperature;humidity
4167;BME280;2097;51.104;7.150;2022-12-13T00:01:18;98362.22;;;-4.45;100.00
4167;BME280;2097;51.104;7.150;2022-12-13T00:03:45;98360.56;;;-4.47;100.00
4167;BME280;2097;51.104;7.150;2022-12-13T00:06:12;98367.31;;;-4.43;100.00
4167;BME280;2097;51.104;7.150;2022-12-13T00:08:39;98349.63;;;-4.49;100.00
4167;BME280;2097;51.104;7.150;2022-12-13T00:11:10;98353.84;;;-4.48;100.00
4167;BME280;2097;51.104;7.150;2022-12-13T00:13:39;98352.16;;;-4.52;100.00
4167;BME280;2097;51.104;7.150;2022-12-13T00:16:10;98353.06;;;-4.57;100.00
4167;BME280;2097;51.104;7.150;2022-12-13T00:18:37;98347.97;;;-4.59;100.00
4167;BME280;2097;51.104;7.150;2022-12-13T00:21:04;98344.59;;;-4.58;100.00
4167;BME280;2097;51.104;7.150;2022-12-13T00:23:31;98345.41;;;-4.50;100.00
4167;BME280;2097;51.104;7.150;2022-12-13T00:26:01;98355.50;;;-4.47;100.00
4167;BME280;2097;51.104;7.150;2022-12-13T00:28:28;98346.25;;;-4.48;100.00
4167;BME280;2097;51.104;7.150;2022-12-13T00:30:57;98346.25;;;-4.53;100.00
4167;BME280;2097;51.104;7.150;2022-12-13T00:33:24;98349.66;;;-4.56;100.00
4167;BME280;2097;51.104;7.150;2022-12-13T00:35:51;98344.59;;;-4.58;100.00
4167;BME280;2097;51.104;7.150;2022-12-13T00:38:18;98348.84;;;-4.58;100.00
4167;BME280;2097;51.104;7.150;2022-12-13T00:40:45;98337.03;;;-4.64;100.00
4167;BME280;2097;51.104;7.150;2022-12-13T00:43:12;98340.41;;;-4.62;100.00
4167;BME280;2097;51.104;7.150;2022-12-13T00:45:39;98341.25;;;-4.58;100.00
4167;BME280;2097;51.104;7.150;2022-12-13T00:48:07;98323.53;;;-4.60;100.00
4167;BME280;2097;51.104;7.150;2022-12-13T00:50:34;98338.66;;;-4.53;100.00
4167;BME280;2097;51.104;7.150;2022-12-13T00:53:02;98343.72;;;-4.51;100.00
4167;BME280;2097;51.104;7.150;2022-12-13T00:55:30;98342.03;;;-4.51;100.00
4167;BME280;2097;51.104;7.150;2022-12-13T00:57:57;98340.34;;;-4.52;100.00
4167;BME280;2097;51.104;7.150;2022-12-13T01:00:23;98342.88;;;-4.52;100.00
4167;BME280;2097;51.104;7.150;2022-12-13T01:02:51;98342.06;;;-4.58;100.00
4167;BME280;2097;51.104;7.150;2022-12-13T01:05:20;98349.72;;;-4.65;100.00
4167;BME280;2097;51.104;7.150;2022-12-13T01:07:47;98345.53;;;-4.69;100.00
4167;BME280;2097;51.104;7.150;2022-12-13T01:10:14;98347.16;;;-4.64;100.00
4167;BME280;2097;51.104;7.150;2022-12-13T01:12:44;98348.06;;;-4.69;100.00
4167;BME280;2097;51.104;7.150;2022-12-13T01:15:11;98343.81;;;-4.72;100.00
4167;BME280;2097;51.104;7.150;2022-12-13T01:17:38;98345.56;;;-4.77;100.00
4167;BME280;2097;51.104;7.150;2022-12-13T01:20:06;98344.75;;;-4.82;100.00
4167;BME280;2097;51.104;7.150;2022-12-13T01:22:34;98350.66;;;-4.86;100.00
4167;BME280;2097;51.104;7.150;2022-12-13T01:25:01;98339.69;;;-4.89;100.00
4167;BME280;2097;51.104;7.150;2022-12-13T01:27:28;98344.78;;;-4.91;100.00
4167;BME280;2097;51.104;7.150;2022-12-13T01:29:55;98341.41;;;-4.91;100.00
4167;BME280;2097;51.104;7.150;2022-12-13T01:32:21;98344.78;;;-4.94;100.00
4167;BME280;2097;51.104;7.150;2022-12-13T01:34:48;98332.16;;;-4.94;100.00
4167;BME280;2097;51.104;7.150;2022-12-13T01:37:15;98348.16;;;-4.95;100.00
4167;BME280;2097;51.104;7.150;2022-12-13T01:39:46;98338.91;;;-4.99;100.00
4167;BME280;2097;51.104;7.150;2022-12-13T01:42:13;98338.91;;;-4.99;100.00
4167;BME280;2097;51.104;7.150;2022-12-13T01:47:58;98344.81;;;-5.00;100.00
4167;BME280;2097;51.104;7.150;2022-12-13T01:50:31;98345.69;;;-5.04;100.00
4167;BME280;2097;51.104;7.150;2022-12-13T01:52:59;98337.25;;;-5.04;100.00
4167;BME280;2097;51.104;7.150;2022-12-13T01:55:30;98331.41;;;-5.14;100.00
4167;BME280;2097;51.104;7.150;2022-12-13T01:58:01;98334.78;;;-5.18;100.00
4167;BME280;2097;51.104;7.150;2022-12-13T02:00:28;98348.28;;;-5.16;100.00
4167;BME280;2097;51.104;7.150;2022-12-13T02:02:57;98344.06;;;-5.17;100.00
4167;BME280;2097;51.104;7.150;2022-12-13T02:05:27;98345.75;;;-5.19;100.00
4167;BME280;2097;51.104;7.150;2022-12-13T02:07:57;98344.91;;;-5.21;100.00
4167;BME280;2097;51.104;7.150;2022-12-13T02:10:26;98266.75;;;-5.74;100.00
4167;BME280;2097;51.104;7.150;2022-12-13T02:12:54;98349.13;;;-5.26;100.00
4167;BME280;2097;51.104;7.150;2022-12-13T02:15:25;98350.00;;;-5.28;100.00
4167;BME280;2097;51.104;7.150;2022-12-13T02:18:05;98340.72;;;-5.34;100.00
4167;BME280;2097;51.104;7.150;2022-12-13T02:26:59;98352.53;;;-5.42;100.00
4167;BME280;2097;51.104;7.150;2022-12-13T02:32:48;98350.88;;;-5.38;100.00
4167;BME280;2097;51.104;7.150;2022-12-13T02:35:23;98345.78;;;-5.37;100.00
4167;BME280;2097;51.104;7.150;2022-12-13T02:37:58;98339.91;;;-5.34;100.00
4167;BME280;2097;51.104;7.150;2022-12-13T02:40:30;98337.38;;;-5.34;100.00
4167;BME280;2097;51.104;7.150;2022-12-13T02:43:01;98334.84;;;-5.39;100.00
4167;BME280;2097;51.104;7.150;2022-12-13T02:45:34;98334.84;;;-5.45;100.00
4167;BME280;2097;51.104;7.150;2022-12-13T02:48:07;98339.94;;;-5.46;100.00
4167;BME280;2097;51.104;7.150;2022-12-13T02:50:35;98334.06;;;-5.47;100.00
4167;BME280;2097;51.104;7.150;2022-12-13T02:53:04;98330.66;;;-5.43;100.00
4167;BME280;2097;51.104;7.150;2022-12-13T02:55:32;98334.84;;;-5.42;100.00
4167;BME280;2097;51.104;7.150;2022-12-13T02:58:01;98333.16;;;-5.43;100.00
4167;BME280;2097;51.104;7.150;2022-12-13T03:00:34;98329.81;;;-5.46;100.00
4167;BME280;2097;51.104;7.150;2022-12-13T03:03:13;98337.41;;;-5.40;100.00
4167;BME280;2097;51.104;7.150;2022-12-13T03:05:47;98343.28;;;-5.29;100.00
4167;BME280;2097;51.104;7.150;2022-12-13T03:08:44;98341.56;;;-5.23;100.00
4167;BME280;2097;51.104;7.150;2022-12-13T03:11:14;98337.34;;;-5.27;100.00
4167;BME280;2097;51.104;7.150;2022-12-13T03:13:48;98337.38;;;-5.33;100.00
4167;BME280;2097;51.104;7.150;2022-12-13T03:16:27;98328.97;;;-5.42;100.00
4167;BME280;2097;51.104;7.150;2022-12-13T03:18:59;98328.13;;;-5.47;100.00
4167;BME280;2097;51.104;7.150;2022-12-13T03:21:27;98329.84;;;-5.51;100.00
4167;BME280;2097;51.104;7.150;2022-12-13T03:23:54;98327.31;;;-5.54;100.00
4167;BME280;2097;51.104;7.150;2022-12-13T03:26:23;98279.47;;;-5.89;100.00
4167;BME280;2097;51.104;7.150;2022-12-13T03:28:50;98324.81;;;-5.57;100.00
4167;BME280;2097;51.104;7.150;2022-12-13T03:31:18;98323.09;;;-5.56;100.00
4167;BME280;2097;51.104;7.150;2022-12-13T03:33:47;98319.75;;;-5.51;100.00
4167;BME280;2097;51.104;7.150;2022-12-13T03:36:15;98309.66;;;-5.57;100.00
4167;BME280;2097;51.104;7.150;2022-12-13T03:38:43;98324.78;;;-5.52;100.00
4167;BME280;2097;51.104;7.150;2022-12-13T03:41:12;98307.13;;;-5.64;100.00
4167;BME280;2097;51.104;7.150;2022-12-13T03:43:40;98324.81;;;-5.60;100.00
4167;BME280;2097;51.104;7.150;2022-12-13T03:46:08;98320.59;;;-5.61;100.00
4167;BME280;2097;51.104;7.150;2022-12-13T03:48:35;98315.56;;;-5.63;100.00
4167;BME280;2097;51.104;7.150;2022-12-13T03:51:02;98309.66;;;-5.65;100.00
4167;BME280;2097;51.104;7.150;2022-12-13T03:53:31;98308.00;;;-5.68;100.00
4167;BME280;2097;51.104;7.150;2022-12-13T03:56:02;98312.19;;;-5.74;100.00
4167;BME280;2097;51.104;7.150;2022-12-13T03:58:29;98312.25;;;-5.79;100.00
4167;BME280;2097;51.104;7.150;2022-12-13T04:00:56;98305.53;;;-5.80;100.00
4167;BME280;2097;51.104;7.150;2022-12-13T04:03:23;98312.19;;;-5.74;100.00
4167;BME280;2097;51.104;7.150;2022-12-13T04:05:50;98307.22;;;-5.79;100.00
4167;BME280;2097;51.104;7.150;2022-12-13T04:08:16;98312.25;;;-5.77;100.00
4167;BME280;2097;51.104;7.150;2022-12-13T04:10:45;98318.09;;;-5.72;100.00
4167;BME280;2097;51.104;7.150;2022-12-13T04:13:11;98316.44;;;-5.72;100.00
4167;BME280;2097;51.104;7.150;2022-12-13T04:16:04;98308.88;;;-5.79;100.00
4167;BME280;2097;51.104;7.150;2022-12-13T04:18:31;98310.53;;;-5.75;100.00
4167;BME280;2097;51.104;7.150;2022-12-13T04:20:58;98319.78;;;-5.76;100.00
4167;BME280;2097;51.104;7.150;2022-12-13T04:23:25;98311.41;;;-5.81;100.00
4167;BME280;2097;51.104;7.150;2022-12-13T04:25:53;98315.59;;;-5.74;100.00
4167;BME280;2097;51.104;7.150;2022-12-13T04:28:20;98312.22;;;-5.73;100.00
4167;BME280;2097;51.104;7.150;2022-12-13T04:30:47;98311.38;;;-5.72;100.00
4167;BME280;2097;51.104;7.150;2022-12-13T04:33:13;98303.78;;;-5.70;100.00
4167;BME280;2097;51.104;7.150;2022-12-13T04:35:40;98300.41;;;-5.72;100.00
4167;BME280;2097;51.104;7.150;2022-12-13T04:38:07;98300.41;;;-5.75;100.00
4167;BME280;2097;51.104;7.150;2022-12-13T04:40:34;98296.22;;;-5.72;100.00
4167;BME280;2097;51.104;7.150;2022-12-13T04:43:02;98300.41;;;-5.69;100.00
4167;BME280;2097;51.104;7.150;2022-12-13T04:45:29;98292.00;;;-5.71;100.00
4167;BME280;2097;51.104;7.150;2022-12-13T04:47:56;98289.47;;;-5.74;100.00
4167;BME280;2097;51.104;7.150;2022-12-13T04:50:22;98297.06;;;-5.74;100.00
4167;BME280;2097;51.104;7.150;2022-12-13T04:52:49;98298.75;;;-5.69;100.00
4167;BME280;2097;51.104;7.150;2022-12-13T04:55:16;98291.16;;;-5.67;100.00
4167;BME280;2097;51.104;7.150;2022-12-13T04:57:43;98296.22;;;-5.72;100.00
4167;BME280;2097;51.104;7.150;2022-12-13T05:00:12;98290.31;;;-5.74;100.00
4167;BME280;2097;51.104;7.150;2022-12-13T05:02:39;98288.66;;;-5.75;100.00
4167;BME280;2097;51.104;7.150;2022-12-13T05:05:08;98291.16;;;-5.75;100.00
4167;BME280;2097;51.104;7.150;2022-12-13T05:07:36;98281.03;;;-5.62;100.00
4167;BME280;2097;51.104;7.150;2022-12-13T05:10:04;98285.22;;;-5.58;100.00
4167;BME280;2097;51.104;7.150;2022-12-13T05:12:32;98284.38;;;-5.60;100.00
4167;BME280;2097;51.104;7.150;2022-12-13T05:14:59;98277.69;;;-5.65;100.00
4167;BME280;2097;51.104;7.150;2022-12-13T05:17:27;98274.31;;;-5.70;100.00
4167;BME280;2097;51.104;7.150;2022-12-13T05:19:54;98270.94;;;-5.73;100.00
4167;BME280;2097;51.104;7.150;2022-12-13T05:22:21;98141.59;;;-6.49;100.00
4167;BME280;2097;51.104;7.150;2022-12-13T05:24:48;98270.94;;;-5.76;100.00
4167;BME280;2097;51.104;7.150;2022-12-13T05:27:15;98273.53;;;-5.79;100.00
4167;BME280;2097;51.104;7.150;2022-12-13T05:29:42;98268.47;;;-5.79;100.00
4167;BME280;2097;51.104;7.150;2022-12-13T05:32:09;98272.69;;;-5.80;100.00
4167;BME280;2097;51.104;7.150;2022-12-13T05:34:37;98267.59;;;-5.77;100.00
4167;BME280;2097;51.104;7.150;2022-12-13T05:37:04;98270.97;;;-5.72;100.00
4167;BME280;2097;51.104;7.150;2022-12-13T05:39:31;98265.03;;;-5.66;100.00
4167;BME280;2097;51.104;7.150;2022-12-13T05:41:58;98265.91;;;-5.72;100.00
4167;BME280;2097;51.104;7.150;2022-12-13T05:44:25;98262.53;;;-5.75;100.00
4167;BME280;2097;51.104;7.150;2022-12-13T05:46:52;98262.56;;;-5.77;100.00
4167;BME280;2097;51.104;7.150;2022-12-13T05:49:19;98264.28;;;-5.79;100.00
4167;BME280;2097;51.104;7.150;2022-12-13T05:51:47;98256.69;;;-5.82;100.00
4167;BME280;2097;51.104;7.150;2022-12-13T05:54:14;98011.47;;;-7.23;100.00
4167;BME280;2097;51.104;7.150;2022-12-13T05:56:41;98257.50;;;-5.74;100.00
4167;BME280;2097;51.104;7.150;2022-12-13T05:59:07;98264.22;;;-5.70;100.00
4167;BME280;2097;51.104;7.150;2022-12-13T06:01:34;98264.22;;;-5.73;100.00
4167;BME280;2097;51.104;7.150;2022-12-13T06:04:01;98273.53;;;-5.82;100.00
4167;BME280;2097;51.104;7.150;2022-12-13T06:06:28;98239.91;;;-5.98;100.00
4167;BME280;2097;51.104;7.150;2022-12-13T06:08:57;98261.72;;;-5.80;100.00
4167;BME280;2097;51.104;7.150;2022-12-13T06:11:24;98263.38;;;-5.76;100.00
4167;BME280;2097;51.104;7.150;2022-12-13T06:13:51;98263.38;;;-5.76;100.00
4167;BME280;2097;51.104;7.150;2022-12-13T06:16:18;98265.09;;;-5.81;100.00
4167;BME280;2097;51.104;7.150;2022-12-13T06:18:45;98261.78;;;-5.86;100.00
4167;BME280;2097;51.104;7.150;2022-12-13T06:21:12;98260.91;;;-5.87;100.00
4167;BME280;2097;51.104;7.150;2022-12-13T06:23:39;98253.38;;;-5.91;100.00
4167;BME280;2097;51.104;7.150;2022-12-13T06:26:07;98260.94;;;-5.94;100.00
4167;BME280;2097;51.104;7.150;2022-12-13T06:28:34;98257.56;;;-5.90;100.00
4167;BME280;2097;51.104;7.150;2022-12-13T06:31:02;98257.56;;;-5.89;100.00
4167;BME280;2097;51.104;7.150;2022-12-13T06:33:29;98253.34;;;-5.90;100.00
4167;BME280;2097;51.104;7.150;2022-12-13T06:35:59;98255.06;;;-5.96;100.00
4167;BME280;2097;51.104;7.150;2022-12-13T06:38:26;98245.81;;;-6.03;100.00
4167;BME280;2097;51.104;7.150;2022-12-13T06:40:53;98260.09;;;-5.99;100.00
4167;BME280;2097;51.104;7.150;2022-12-13T06:43:21;98248.34;;;-6.09;100.00
4167;BME280;2097;51.104;7.150;2022-12-13T06:45:48;98267.69;;;-6.04;100.00
4167;BME280;2097;51.104;7.150;2022-12-13T06:48:15;98265.16;;;-6.08;100.00
4167;BME280;2097;51.104;7.150;2022-12-13T06:50:42;98267.69;;;-6.04;100.00
4167;BME280;2097;51.104;7.150;2022-12-13T06:53:09;98274.44;;;-6.03;100.00
4167;BME280;2097;51.104;7.150;2022-12-13T06:55:36;98276.09;;;-6.06;100.00
4167;BME280;2097;51.104;7.150;2022-12-13T06:58:03;98274.44;;;-6.09;100.00
4167;BME280;2097;51.104;7.150;2022-12-13T07:00:31;98282.00;;;-6.10;100.00
4167;BME280;2097;51.104;7.150;2022-12-13T07:02:59;98287.03;;;-6.16;100.00
4167;BME280;2097;51.104;7.150;2022-12-13T07:05:26;98282.00;;;-6.21;100.00
4167;BME280;2097;51.104;7.150;2022-12-13T07:07:52;98276.97;;;-6.21;100.00
4167;BME280;2097;51.104;7.150;2022-12-13T07:10:20;98277.81;;;-6.22;100.00
4167;BME280;2097;51.104;7.150;2022-12-13T07:12:47;98197.97;;;-6.99;100.00
4167;BME280;2097;51.104;7.150;2022-12-13T07:15:14;98275.28;;;-6.32;100.00
4167;BME280;2097;51.104;7.150;2022-12-13T07:17:43;98283.72;;;-6.33;100.00
4167;BME280;2097;51.104;7.150;2022-12-13T07:20:10;98276.13;;;-6.39;100.00
4167;BME280;2097;51.104;7.150;2022-12-13T07:22:39;98276.97;;;-6.46;100.00
4167;BME280;2097;51.104;7.150;2022-12-13T07:25:06;98169.34;;;-7.19;100.00
4167;BME280;2097;51.104;7.150;2022-12-13T07:27:34;98115.56;;;-7.57;100.00
4167;BME280;2097;51.104;7.150;2022-12-13T07:30:01;98277.81;;;-6.61;100.00
4167;BME280;2097;51.104;7.150;2022-12-13T07:32:28;98279.47;;;-6.63;100.00
4167;BME280;2097;51.104;7.150;2022-12-13T07:34:56;98280.34;;;-6.59;100.00
4167;BME280;2097;51.104;7.150;2022-12-13T07:37:23;98293.78;;;-6.54;100.00
4167;BME280;2097;51.104;7.150;2022-12-13T07:39:50;98271.91;;;-6.52;100.00
4167;BME280;2097;51.104;7.150;2022-12-13T07:42:17;98273.63;;;-6.47;100.00
4167;BME280;2097;51.104;7.150;2022-12-13T07:44:44;98270.25;;;-6.47;100.00
4167;BME280;2097;51.104;7.150;2022-12-13T07:47:10;98280.34;;;-6.55;100.00
4167;BME280;2097;51.104;7.150;2022-12-13T07:49:37;98286.22;;;-6.54;100.00
4167;BME280;2097;51.104;7.150;2022-12-13T07:52:10;98280.34;;;-6.43;100.00
4167;BME280;2097;51.104;7.150;2022-12-13T07:54:37;98283.72;;;-6.38;100.00
4167;BME280;2097;51.104;7.150;2022-12-13T07:57:04;98170.22;;;-7.03;100.00
4167;BME280;2097;51.104;7.150;2022-12-13T07:59:31;98268.56;;;-6.42;100.00
4167;BME280;2097;51.104;7.150;2022-12-13T08:01:58;98281.16;;;-6.29;100.00
4167;BME280;2097;51.104;7.150;2022-12-13T08:04:25;98168.53;;;-6.98;100.00
4167;BME280;2097;51.104;7.150;2022-12-13T08:06:51;98287.91;;;-6.28;100.00
4167;BME280;2097;51.104;7.150;2022-12-13T08:09:20;98169.41;;;-6.95;100.00
4167;BME280;2097;51.104;7.150;2022-12-13T08:11:47;98171.91;;;-6.99;100.00
4167;BME280;2097;51.104;7.150;2022-12-13T08:14:14;98288.75;;;-6.27;100.00
4167;BME280;2097;51.104;7.150;2022-12-13T08:16:41;98288.75;;;-6.24;100.00
4167;BME280;2097;51.104;7.150;2022-12-13T08:19:08;98292.94;;;-6.22;100.00
4167;BME280;2097;51.104;7.150;2022-12-13T08:21:37;98291.25;;;-6.20;100.00
4167;BME280;2097;51.104;7.150;2022-12-13T08:24:04;98291.25;;;-6.18;100.00
4167;BME280;2097;51.104;7.150;2022-12-13T08:26:32;98287.03;;;-6.16;100.00
4167;BME280;2097;51.104;7.150;2022-12-13T08:28:59;98286.22;;;-6.14;100.00
4167;BME280;2097;51.104;7.150;2022-12-13T08:31:26;98281.16;;;-6.14;100.00
4167;BME280;2097;51.104;7.150;2022-12-13T08:33:52;98289.59;;;-6.12;100.00
4167;BME280;2097;51.104;7.150;2022-12-13T08:36:19;98292.09;;;-6.12;100.00
4167;BME280;2097;51.104;7.150;2022-12-13T08:38:48;98276.97;;;-6.18;100.00
4167;BME280;2097;51.104;7.150;2022-12-13T08:41:17;98139.97;;;-6.91;100.00
4167;BME280;2097;51.104;7.150;2022-12-13T08:43:46;98297.97;;;-5.92;100.00
4167;BME280;2097;51.104;7.150;2022-12-13T08:46:13;98292.91;;;-5.87;100.00
4167;BME280;2097;51.104;7.150;2022-12-13T08:48:40;98282.78;;;-5.81;100.00
4167;BME280;2097;51.104;7.150;2022-12-13T08:51:09;98291.22;;;-5.81;100.00
4167;BME280;2097;51.104;7.150;2022-12-13T08:53:37;98145.00;;;-6.63;100.00
4167;BME280;2097;51.104;7.150;2022-12-13T08:56:06;98294.53;;;-5.71;100.00
4167;BME280;2097;51.104;7.150;2022-12-13T08:58:35;98286.94;;;-5.65;100.00
4167;BME280;2097;51.104;7.150;2022-12-13T09:01:05;98282.69;;;-5.59;100.00
4167;BME280;2097;51.104;7.150;2022-12-13T09:03:32;98289.41;;;-5.51;100.00
4167;BME280;2097;51.104;7.150;2022-12-13T09:06:05;98294.44;;;-5.43;100.00
4167;BME280;2097;51.104;7.150;2022-12-13T09:08:32;98300.31;;;-5.38;100.00
4167;BME280;2097;51.104;7.150;2022-12-13T09:10:59;98299.47;;;-5.34;100.00
4167;BME280;2097;51.104;7.150;2022-12-13T09:13:28;98305.34;;;-5.31;100.00
4167;BME280;2097;51.104;7.150;2022-12-13T09:15:55;98304.50;;;-5.27;100.00
4167;BME280;2097;51.104;7.150;2022-12-13T09:18:23;98304.44;;;-5.19;100.00
4167;BME280;2097;51.104;7.150;2022-12-13T09:20:50;98154.94;;;-6.03;100.00
4167;BME280;2097;51.104;7.150;2022-12-13T09:23:17;98269.13;;;-5.30;100.00
4167;BME280;2097;51.104;7.150;2022-12-13T09:25:44;98111.19;;;-6.08;100.00
4167;BME280;2097;51.104;7.150;2022-12-13T09:28:18;98301.78;;;-4.91;100.00
4167;BME280;2097;51.104;7.150;2022-12-13T09:30:45;98261.44;;;-5.10;100.00
4167;BME280;2097;51.104;7.150;2022-12-13T09:33:11;98213.50;;;-5.30;100.00
4167;BME280;2097;51.104;7.150;2022-12-13T09:35:40;98308.47;;;-4.75;100.00
4167;BME280;2097;51.104;7.150;2022-12-13T09:38:06;98165.66;;;-5.57;100.00
4167;BME280;2097;51.104;7.150;2022-12-13T09:40:34;98303.31;;;-4.66;100.00
4167;BME280;2097;51.104;7.150;2022-12-13T09:43:03;98307.47;;;-4.56;100.00
4167;BME280;2097;51.104;7.150;2022-12-13T09:45:31;98272.16;;;-4.69;100.00
4167;BME280;2097;51.104;7.150;2022-12-13T09:48:00;98307.34;;;-4.40;100.00
4167;BME280;2097;51.104;7.150;2022-12-13T09:50:28;98313.22;;;-4.33;100.00
4167;BME280;2097;51.104;7.150;2022-12-13T09:52:59;98242.59;;;-4.66;100.00
4167;BME280;2097;51.104;7.150;2022-12-13T09:55:30;98264.34;;;-4.41;100.00
4167;BME280;2097;51.104;7.150;2022-12-13T09:57:59;98299.53;;;-4.08;100.00
4167;BME280;2097;51.104;7.150;2022-12-13T10:00:33;98175.28;;;-4.82;100.00
4167;BME280;2097;51.104;7.150;2022-12-13T10:03:00;98314.59;;;-3.96;100.00
4167;BME280;2097;51.104;7.150;2022-12-13T10:05:29;98235.56;;;-4.31;100.00
4167;BME280;2097;51.104;7.150;2022-12-13T10:07:59;98306.94;;;-3.89;100.00
4167;BME280;2097;51.104;7.150;2022-12-13T10:10:26;98306.09;;;-3.88;100.00
4167;BME280;2097;51.104;7.150;2022-12-13T10:12:58;98304.34;;;-3.81;100.00
4167;BME280;2097;51.104;7.150;2022-12-13T10:15:30;98301.75;;;-3.75;100.00
4167;BME280;2097;51.104;7.150;2022-12-13T10:18:01;98294.03;;;-3.65;100.00
4167;BME280;2097;51.104;7.150;2022-12-13T10:20:29;98293.91;;;-3.54;100.00
4167;BME280;2097;51.104;7.150;2022-12-13T10:22:58;98285.38;;;-3.47;100.00
4167;BME280;2097;51.104;7.150;2022-12-13T10:25:44;98237.44;;;-3.65;100.00
4167;BME280;2097;51.104;7.150;2022-12-13T10:28:12;98277.56;;;-3.28;100.00
4167;BME280;2097;51.104;7.150;2022-12-13T10:30:41;98276.56;;;-3.15;100.00
4167;BME280;2097;51.104;7.150;2022-12-13T10:33:20;98232.72;;;-3.28;100.00
4167;BME280;2097;51.104;7.150;2022-12-13T10:36:02;98272.09;;;-2.98;100.00
4167;BME280;2097;51.104;7.150;2022-12-13T10:38:34;98264.38;;;-2.91;100.00
4167;BME280;2097;51.104;7.150;2022-12-13T10:41:02;98265.94;;;-2.79;100.00
4167;BME280;2097;51.104;7.150;2022-12-13T10:43:29;98264.91;;;-2.69;100.00
4167;BME280;2097;51.104;7.150;2022-12-13T10:45:58;98256.31;;;-2.58;100.00
4167;BME280;2097;51.104;7.150;2022-12-13T10:48:32;98246.81;;;-2.47;100.00
4167;BME280;2097;51.104;7.150;2022-12-13T10:51:02;98244.94;;;-2.36;100.00
4167;BME280;2097;51.104;7.150;2022-12-13T10:53:32;98137.50;;;-2.91;100.00
4167;BME280;2097;51.104;7.150;2022-12-13T10:56:01;98236.16;;;-2.17;100.00
4167;BME280;2097;51.104;7.150;2022-12-13T10:58:39;98180.81;;;-2.50;100.00
4167;BME280;2097;51.104;7.150;2022-12-13T11:01:18;98230.06;;;-2.07;100.00
4167;BME280;2097;51.104;7.150;2022-12-13T11:03:55;98230.81;;;-2.02;100.00
4167;BME280;2097;51.104;7.150;2022-12-13T11:06:24;98228.13;;;-1.95;100.00
4167;BME280;2097;51.104;7.150;2022-12-13T11:08:53;98224.72;;;-1.92;100.00
4167;BME280;2097;51.104;7.150;2022-12-13T11:11:27;98223.00;;;-1.92;100.00
4167;BME280;2097;51.104;7.150;2022-12-13T11:13:56;98184.38;;;-2.10;100.00
4167;BME280;2097;51.104;7.150;2022-12-13T11:16:28;98222.03;;;-1.85;100.00
4167;BME280;2097;51.104;7.150;2022-12-13T11:18:58;98190.97;;;-2.00;100.00
4167;BME280;2097;51.104;7.150;2022-12-13T11:21:28;98210.09;;;-1.81;100.00
4167;BME280;2097;51.104;7.150;2022-12-13T11:23:58;98207.47;;;-1.77;100.00
4167;BME280;2097;51.104;7.150;2022-12-13T11:26:27;98131.16;;;-2.18;100.00
4167;BME280;2097;51.104;7.150;2022-12-13T11:29:07;98172.03;;;-1.84;100.00
4167;BME280;2097;51.104;7.150;2022-12-13T11:31:44;98200.44;;;-1.64;100.00
4167;BME280;2097;51.104;7.150;2022-12-13T11:34:21;98197.78;;;-1.58;100.00
4167;BME280;2097;51.104;7.150;2022-12-13T11:36:58;98126.34;;;-1.89;100.00
4167;BME280;2097;51.104;7.150;2022-12-13T11:39:30;98163.84;;;-1.57;100.00
4167;BME280;2097;51.104;7.150;2022-12-13T11:42:00;98199.59;;;-1.22;100.00
4167;BME280;2097;51.104;7.150;2022-12-13T11:44:39;98054.44;;;-1.92;100.00
4167;BME280;2097;51.104;7.150;2022-12-13T11:47:13;98186.38;;;-1.02;100.00
4167;BME280;2097;51.104;7.150;2022-12-13T11:49:44;98183.63;;;-0.91;100.00
4167;BME280;2097;51.104;7.150;2022-12-13T11:52:17;98180.16;;;-0.89;100.00
4167;BME280;2097;51.104;7.150;2022-12-13T11:54:55;98088.00;;;-1.39;100.00
4167;BME280;2097;51.104;7.150;2022-12-13T11:57:32;98039.69;;;-1.77;100.00
4167;BME280;2097;51.104;7.150;2022-12-13T12:00:06;98174.50;;;-1.01;100.00
4167;BME280;2097;51.104;7.150;2022-12-13T12:02:40;98180.34;;;-0.98;100.00
4167;BME280;2097;51.104;7.150;2022-12-13T12:05:19;98183.75;;;-0.97;100.00
4167;BME280;2097;51.104;7.150;2022-12-13T12:07:54;98187.94;;;-0.95;100.00
4167;BME280;2097;51.104;7.150;2022-12-13T12:10:28;98054.94;;;-1.77;100.00
4167;BME280;2097;51.104;7.150;2022-12-13T12:13:03;98187.06;;;-0.94;100.00
4167;BME280;2097;51.104;7.150;2022-12-13T12:15:37;98184.44;;;-0.91;100.00
4167;BME280;2097;51.104;7.150;2022-12-13T12:18:12;98121.69;;;-1.29;100.00
4167;BME280;2097;51.104;7.150;2022-12-13T12:20:48;98118.19;;;-1.24;100.00
4167;BME280;2097;51.104;7.150;2022-12-13T12:23:30;98190.97;;;-0.79;100.00
4167;BME280;2097;51.104;7.150;2022-12-13T12:26:07;98197.66;;;-0.74;100.00
4167;BME280;2097;51.104;7.150;2022-12-13T12:28:48;98197.47;;;-0.66;100.00
4167;BME280;2097;51.104;7.150;2022-12-13T12:31:24;98193.06;;;-0.60;100.00
4167;BME280;2097;51.104;7.150;2022-12-13T12:34:01;98190.38;;;-0.54;100.00
4167;BME280;2097;51.104;7.150;2022-12-13T12:36:48;98123.22;;;-0.85;100.00
4167;BME280;2097;51.104;7.150;2022-12-13T12:39:33;98178.28;;;-0.46;100.00
4167;BME280;2097;51.104;7.150;2022-12-13T12:42:19;98173.06;;;-0.41;100.00
4167;BME280;2097;51.104;7.150;2022-12-13T12:45:02;98021.94;;;-1.42;100.00
4167;BME280;2097;51.104;7.150;2022-12-13T12:47:37;98168.56;;;-0.32;100.00
4167;BME280;2097;51.104;7.150;2022-12-13T12:50:17;98168.56;;;-0.32;100.00
4167;BME280;2097;51.104;7.150;2022-12-13T12:52:58;98165.00;;;-0.25;100.00
4167;BME280;2097;51.104;7.150;2022-12-13T12:55:36;98162.28;;;-0.19;100.00
4167;BME280;2097;51.104;7.150;2022-12-13T12:58:12;98085.13;;;-0.56;100.00
4167;BME280;2097;51.104;7.150;2022-12-13T13:00:50;98162.06;;;-0.10;100.00
4167;BME280;2097;51.104;7.150;2022-12-13T13:03:22;98054.84;;;-0.66;100.00
4167;BME280;2097;51.104;7.150;2022-12-13T13:05:52;98148.31;;;-0.04;100.00
4167;BME280;2097;51.104;7.150;2022-12-13T13:08:24;98151.00;;;-0.09;100.00
4167;BME280;2097;51.104;7.150;2022-12-13T13:10:53;98153.69;;;-0.15;100.00
4167;BME280;2097;51.104;7.150;2022-12-13T13:13:42;98140.22;;;-0.20;100.00
4167;BME280;2097;51.104;7.150;2022-12-13T13:16:29;98145.41;;;-0.23;100.00
4167;BME280;2097;51.104;7.150;2022-12-13T13:18:57;98081.06;;;-0.63;100.00
4167;BME280;2097;51.104;7.150;2022-12-13T13:21:40;98026.53;;;-0.88;100.00
4167;BME280;2097;51.104;7.150;2022-12-13T13:24:14;98143.34;;;-0.09;100.00
4167;BME280;2097;51.104;7.150;2022-12-13T13:26:42;98079.66;;;-0.42;100.00
4167;BME280;2097;51.104;7.150;2022-12-13T13:29:35;98063.75;;;-0.50;100.00
4167;BME280;2097;51.104;7.150;2022-12-13T13:32:25;98147.41;;;-0.02;100.00
4167;BME280;2097;51.104;7.150;2022-12-13T13:34:52;98067.28;;;-0.56;100.00
4167;BME280;2097;51.104;7.150;2022-12-13T13:37:27;98155.94;;;-0.03;100.00